Time;durP1;ratioP1;P1;durP2;ratioP2;P2;SDS_P1;SDS_P2;PMS_P1;PMS_P2;Temp;Humidity;BMP_temperature;BMP_pressure;BME280_temperature;BME280_humidity;BME280_pressure;Samples;Min_cycle;Max_cycle;Signal;HPM_P1;HPM_P2
2021/09/01 00:01:50;;;;;;;28.10;15.17;;;13.70;99.90;;;;;;5051438;28;20277;-67
2021/09/01 00:04:16;;;;;;;20.30;16.40;;;13.70;99.90;;;;;;5040137;28;20595;-67
2021/09/01 00:06:41;;;;;;;19.83;14.73;;;13.80;99.90;;;;;;5031467;28;20215;-67
2021/09/01 00:09:07;;;;;;;20.40;14.23;;;13.80;99.90;;;;;;5040621;28;20178;-67
2021/09/01 00:11:33;;;;;;;19.47;14.50;;;13.90;99.90;;;;;;5051098;28;20224;-67
2021/09/01 00:13:58;;;;;;;20.07;14.30;;;13.90;99.90;;;;;;5043965;28;20180;-67
2021/09/01 00:16:27;;;;;;;20.07;15.03;;;14.00;99.90;;;;;;5031481;28;20264;-67
2021/09/01 00:18:55;;;;;;;20.37;15.13;;;14.00;99.90;;;;;;5037232;28;20186;-67
2021/09/01 00:21:20;;;;;;;28.13;16.03;;;14.00;99.90;;;;;;5051122;28;20178;-67
2021/09/01 00:23:46;;;;;;;30.57;16.27;;;14.10;99.90;;;;;;5046929;28;20645;-67
2021/09/01 00:26:11;;;;;;;23.47;15.37;;;14.10;99.90;;;;;;5045900;28;20206;-67
2021/09/01 00:28:37;;;;;;;26.20;15.20;;;14.10;99.90;;;;;;5048470;28;20332;-67
2021/09/01 00:31:02;;;;;;;22.73;14.13;;;14.20;99.90;;;;;;5030979;28;20590;-64
2021/09/01 00:33:28;;;;;;;24.17;15.00;;;14.20;99.90;;;;;;5049181;28;20234;-67
2021/09/01 00:35:53;;;;;;;18.20;14.37;;;14.20;99.90;;;;;;5035101;28;20207;-67
2021/09/01 00:38:19;;;;;;;20.47;14.60;;;14.20;99.90;;;;;;5050620;28;20198;-67
2021/09/01 00:40:45;;;;;;;22.47;14.60;;;14.30;99.90;;;;;;5054932;28;20182;-64
2021/09/01 00:43:10;;;;;;;19.73;14.87;;;14.30;99.90;;;;;;5039552;28;20593;-64
2021/09/01 00:45:36;;;;;;;21.27;15.13;;;14.30;99.90;;;;;;5035071;28;20652;-67
2021/09/01 00:48:02;;;;;;;25.03;15.40;;;14.40;99.90;;;;;;5047863;28;20210;-67
2021/09/01 00:50:28;;;;;;;20.30;14.70;;;14.40;99.90;;;;;;5054432;28;20264;-67
2021/09/01 00:52:54;;;;;;;24.13;14.37;;;14.40;99.90;;;;;;5043134;28;20607;-67
2021/09/01 00:55:22;;;;;;;24.73;14.73;;;14.40;99.90;;;;;;5034872;28;20164;-67
2021/09/01 00:57:49;;;;;;;19.93;14.40;;;14.40;99.90;;;;;;5034460;28;20203;-67
2021/09/01 01:00:24;;;;;;;26.33;14.67;;;14.40;99.90;;;;;;5034491;28;20178;-67
2021/09/01 01:02:49;;;;;;;18.57;14.07;;;14.50;99.90;;;;;;5044129;28;20178;-66
2021/09/01 01:05:15;;;;;;;19.53;14.37;;;14.50;99.90;;;;;;5054707;28;20288;-67
2021/09/01 01:07:41;;;;;;;19.80;13.90;;;14.50;99.90;;;;;;5046377;28;20210;-67
2021/09/01 01:10:06;;;;;;;22.50;14.63;;;14.60;99.90;;;;;;5034191;28;20171;-67
2021/09/01 01:12:33;;;;;;;17.87;13.47;;;14.60;99.90;;;;;;5039998;28;20218;-67
2021/09/01 01:14:59;;;;;;;21.07;13.17;;;14.60;99.90;;;;;;5054417;28;20178;-67
2021/09/01 01:17:24;;;;;;;17.57;13.77;;;14.60;99.90;;;;;;5050024;28;20199;-67
2021/09/01 01:19:52;;;;;;;17.37;13.83;;;14.60;99.90;;;;;;5034149;28;20237;-67
2021/09/01 01:22:23;;;;;;;16.03;13.17;;;14.60;99.90;;;;;;5036648;28;20628;-65
2021/09/01 01:25:04;;;;;;;16.33;12.70;;;14.70;99.90;;;;;;5054241;28;20175;-64
2021/09/01 01:27:33;;;;;;;20.03;13.17;;;14.70;99.90;;;;;;5035795;28;20574;-64
2021/09/01 01:30:12;;;;;;;19.20;12.20;;;14.60;99.90;;;;;;5033955;28;20538;-65
2021/09/01 01:32:39;;;;;;;22.30;14.47;;;14.70;99.90;;;;;;5052260;28;20206;-65
2021/09/01 01:35:06;;;;;;;22.00;13.60;;;14.70;99.90;;;;;;5054072;28;20167;-65
2021/09/01 01:37:32;;;;;;;18.27;12.97;;;14.70;99.90;;;;;;5037078;28;20300;-64
2021/09/01 01:39:57;;;;;;;17.93;13.57;;;14.80;99.90;;;;;;5033401;28;20602;-64
2021/09/01 01:42:23;;;;;;;18.37;12.70;;;14.80;99.90;;;;;;5048030;28;20232;-64
2021/09/01 01:44:48;;;;;;;14.40;12.93;;;14.80;99.90;;;;;;5052476;28;20174;-65
2021/09/01 01:47:14;;;;;;;20.40;13.10;;;14.90;99.90;;;;;;5040338;28;20754;-64
2021/09/01 01:49:40;;;;;;;18.37;13.23;;;14.90;99.90;;;;;;5033536;28;20172;-65
2021/09/01 01:52:06;;;;;;;21.00;12.67;;;14.90;99.90;;;;;;5044990;28;20225;-65
2021/09/01 01:54:32;;;;;;;18.60;14.43;;;14.90;99.90;;;;;;5045508;28;20225;-65
2021/09/01 01:56:57;;;;;;;18.87;13.37;;;15.00;99.90;;;;;;5032285;28;20281;-64
2021/09/01 01:59:23;;;;;;;17.03;13.17;;;15.00;99.90;;;;;;5034604;28;20183;-64
2021/09/01 02:01:48;;;;;;;16.63;12.77;;;15.00;99.90;;;;;;5033532;28;20317;-64
2021/09/01 02:04:14;;;;;;;19.57;13.00;;;15.00;99.90;;;;;;5044597;28;20187;-64
2021/09/01 02:06:40;;;;;;;16.97;12.87;;;15.00;99.90;;;;;;5053074;28;20247;-67
2021/09/01 02:09:06;;;;;;;18.63;12.00;;;15.00;99.90;;;;;;5042796;28;20321;-67
2021/09/01 02:11:32;;;;;;;16.37;12.27;;;15.00;99.90;;;;;;5032993;28;20168;-67
2021/09/01 02:13:58;;;;;;;18.20;12.17;;;15.00;99.90;;;;;;5040879;28;20170;-67
2021/09/01 02:16:23;;;;;;;17.93;12.50;;;15.00;99.90;;;;;;5052931;28;20190;-65
2021/09/01 02:18:49;;;;;;;14.70;12.40;;;15.00;99.90;;;;;;5038320;28;20183;-65
2021/09/01 02:21:15;;;;;;;18.80;12.37;;;15.00;99.90;;;;;;5032866;28;20195;-65
2021/09/01 02:23:40;;;;;;;20.20;12.60;;;15.00;99.90;;;;;;5034128;28;20190;-65
2021/09/01 02:26:06;;;;;;;19.93;13.50;;;14.90;99.90;;;;;;5032913;28;20176;-65
2021/09/01 02:28:31;;;;;;;23.83;12.90;;;15.00;99.90;;;;;;5045960;28;20297;-65
2021/09/01 02:30:57;;;;;;;20.70;12.60;;;15.00;99.90;;;;;;5052357;28;20171;-65
2021/09/01 02:33:22;;;;;;;15.57;12.10;;;15.00;99.90;;;;;;5047751;28;20640;-65
2021/09/01 02:35:48;;;;;;;18.90;13.33;;;15.00;99.90;;;;;;5052907;28;20175;-64
2021/09/01 02:38:14;;;;;;;19.30;13.70;;;15.00;99.90;;;;;;5037833;28;20577;-67
2021/09/01 02:40:39;;;;;;;21.30;12.80;;;15.00;99.90;;;;;;5032294;28;20171;-67
2021/09/01 02:43:05;;;;;;;18.80;12.20;;;15.00;99.90;;;;;;5045492;28;20190;-67
2021/09/01 02:45:31;;;;;;;13.07;11.70;;;15.00;99.90;;;;;;5052757;28;20178;-67
2021/09/01 02:47:57;;;;;;;20.77;11.87;;;15.00;99.90;;;;;;5041078;28;20620;-67
2021/09/01 02:50:23;;;;;;;14.77;11.37;;;15.00;99.90;;;;;;5034499;28;20201;-67
2021/09/01 02:52:49;;;;;;;16.03;11.83;;;14.90;99.90;;;;;;5052442;28;20696;-67
2021/09/01 02:55:14;;;;;;;12.27;11.03;;;15.00;99.90;;;;;;5051520;28;20171;-67
2021/09/01 02:57:40;;;;;;;12.50;11.20;;;15.00;99.90;;;;;;5032435;28;20250;-67
2021/09/01 03:00:07;;;;;;;15.07;11.83;;;15.00;99.90;;;;;;5032295;28;20229;-67
2021/09/01 03:02:32;;;;;;;21.73;12.13;;;15.00;99.90;;;;;;5051150;28;20269;-68
2021/09/01 03:04:58;;;;;;;19.00;11.87;;;15.00;99.90;;;;;;5052300;28;20254;-67
2021/09/01 03:07:24;;;;;;;15.80;12.07;;;15.00;99.90;;;;;;5034703;28;20269;-67
2021/09/01 03:09:49;;;;;;;15.67;12.33;;;15.00;99.90;;;;;;5032039;28;20164;-67
2021/09/01 03:12:15;;;;;;;18.20;12.60;;;14.90;99.90;;;;;;5047576;28;20652;-66
2021/09/01 03:14:41;;;;;;;21.23;13.13;;;14.90;99.90;;;;;;5052084;28;20244;-65
2021/09/01 03:17:06;;;;;;;16.23;11.60;;;14.90;99.90;;;;;;5036738;28;20207;-64
2021/09/01 03:19:32;;;;;;;16.73;11.13;;;14.80;99.90;;;;;;5039176;28;20159;-64
2021/09/01 03:21:58;;;;;;;14.90;11.80;;;14.80;99.90;;;;;;5051887;28;20202;-65
2021/09/01 03:24:23;;;;;;;22.40;13.40;;;14.80;99.90;;;;;;5046216;28;20250;-65
2021/09/01 03:26:49;;;;;;;17.43;12.13;;;14.70;99.90;;;;;;5031903;28;20270;-64
2021/09/01 03:29:15;;;;;;;17.23;13.70;;;14.70;99.90;;;;;;5034383;28;20197;-66
2021/09/01 03:31:40;;;;;;;14.57;12.47;;;14.80;99.90;;;;;;5038582;28;20186;-65
2021/09/01 03:34:06;;;;;;;16.70;11.83;;;14.80;99.90;;;;;;5033091;28;20183;-64
2021/09/01 03:36:32;;;;;;;15.53;11.90;;;14.80;99.90;;;;;;5031879;28;20234;-65
2021/09/01 03:38:58;;;;;;;14.17;11.80;;;14.80;99.90;;;;;;5031890;28;20645;-65
2021/09/01 03:41:23;;;;;;;15.67;12.27;;;14.80;99.90;;;;;;5037661;28;20675;-65
2021/09/01 03:43:49;;;;;;;20.43;13.23;;;14.90;99.90;;;;;;5031938;28;20201;-65
2021/09/01 03:46:15;;;;;;;16.67;12.73;;;14.80;99.90;;;;;;5049008;28;20213;-64
2021/09/01 03:48:40;;;;;;;13.57;11.03;;;14.90;99.90;;;;;;5051232;28;20217;-64
2021/09/01 03:51:06;;;;;;;16.40;11.97;;;14.90;99.90;;;;;;5047035;28;20261;-64
2021/09/01 03:53:32;;;;;;;14.17;11.07;;;14.90;99.90;;;;;;5050041;28;20192;-65
2021/09/01 03:55:58;;;;;;;14.17;11.73;;;14.90;99.90;;;;;;5050195;28;20178;-65
2021/09/01 03:58:23;;;;;;;13.70;11.43;;;14.90;99.90;;;;;;5034595;28;20241;-65
2021/09/01 04:00:49;;;;;;;12.97;11.13;;;14.90;99.90;;;;;;5031304;28;20176;-64
2021/09/01 04:03:14;;;;;;;19.47;12.13;;;14.90;99.90;;;;;;5046637;28;20185;-65
2021/09/01 04:05:40;;;;;;;19.37;15.07;;;14.90;99.90;;;;;;5051519;28;20183;-65
2021/09/01 04:08:06;;;;;;;17.40;11.97;;;14.90;99.90;;;;;;5040843;28;20293;-64
2021/09/01 04:10:32;;;;;;;13.13;10.27;;;14.90;99.90;;;;;;5052475;28;20644;-65
2021/09/01 04:12:57;;;;;;;20.80;11.33;;;14.90;99.90;;;;;;5043603;28;20190;-65
2021/09/01 04:15:23;;;;;;;16.67;11.23;;;14.80;99.90;;;;;;5035633;28;20171;-64
2021/09/01 04:17:49;;;;;;;13.80;11.03;;;14.90;99.90;;;;;;5045119;28;20240;-68
2021/09/01 04:20:14;;;;;;;13.80;10.60;;;14.90;99.90;;;;;;5055311;28;20178;-67
2021/09/01 04:22:40;;;;;;;13.20;10.70;;;14.90;99.90;;;;;;5046846;28;20668;-67
2021/09/01 04:25:06;;;;;;;15.77;11.30;;;14.90;99.90;;;;;;5035427;28;20187;-67
2021/09/01 04:27:32;;;;;;;13.60;11.53;;;14.90;99.90;;;;;;5036345;28;20210;-67
2021/09/01 04:29:57;;;;;;;21.83;11.73;;;14.90;99.90;;;;;;5035040;28;20179;-65
2021/09/01 04:32:23;;;;;;;15.00;11.07;;;14.90;99.90;;;;;;5053978;28;20183;-67
2021/09/01 04:34:48;;;;;;;12.87;10.00;;;15.00;99.90;;;;;;5055000;28;20228;-67
2021/09/01 04:37:14;;;;;;;13.93;12.03;;;14.90;99.90;;;;;;5052323;23;20221;-66
2021/09/01 04:39:40;;;;;;;13.17;10.87;;;14.90;99.90;;;;;;5035018;28;20184;-66
2021/09/01 04:42:05;;;;;;;15.03;11.77;;;14.90;99.90;;;;;;5034728;28;20644;-65
2021/09/01 04:44:32;;;;;;;14.03;11.27;;;14.90;99.90;;;;;;5034705;28;20213;-66
2021/09/01 04:46:58;;;;;;;16.87;10.73;;;14.90;99.90;;;;;;5034896;28;20199;-66
2021/09/01 04:49:24;;;;;;;13.07;11.70;;;14.90;99.90;;;;;;5034578;28;20206;-66
2021/09/01 04:51:49;;;;;;;12.37;11.00;;;14.90;99.90;;;;;;5033462;28;20266;-66
2021/09/01 04:54:15;;;;;;;12.20;11.03;;;14.90;99.90;;;;;;5034732;28;20225;-65
2021/09/01 04:56:40;;;;;;;15.47;11.10;;;14.90;99.90;;;;;;5034777;28;20578;-65
2021/09/01 04:59:06;;;;;;;15.90;11.63;;;14.90;99.90;;;;;;5034964;28;20187;-65
2021/09/01 05:01:32;;;;;;;14.07;11.90;;;14.90;99.90;;;;;;5034427;28;20168;-65
2021/09/01 05:03:57;;;;;;;14.50;12.03;;;15.00;99.90;;;;;;5034699;28;20230;-65
2021/09/01 05:06:26;;;;;;;16.57;11.77;;;15.00;99.90;;;;;;5034492;28;20179;-66
2021/09/01 05:08:52;;;;;;;18.83;12.13;;;15.10;99.90;;;;;;5034404;28;20661;-66
2021/09/01 05:11:17;;;;;;;16.43;12.37;;;15.00;99.90;;;;;;5034193;28;20184;-66
2021/09/01 05:13:43;;;;;;;22.60;11.57;;;14.90;99.90;;;;;;5034606;28;20164;-66
2021/09/01 05:16:09;;;;;;;18.33;12.40;;;15.00;99.90;;;;;;5034292;28;20623;-65
2021/09/01 05:18:34;;;;;;;15.90;11.33;;;15.00;99.90;;;;;;5034176;28;20206;-66
2021/09/01 05:21:00;;;;;;;17.57;12.23;;;15.10;99.90;;;;;;5033578;28;20183;-66
2021/09/01 05:23:32;;;;;;;16.43;11.93;;;15.10;99.90;;;;;;5034417;28;20258;-66
2021/09/01 05:25:59;;;;;;;21.37;13.43;;;15.20;99.90;;;;;;5034055;28;20186;-65
2021/09/01 05:28:27;;;;;;;14.57;11.57;;;15.20;99.90;;;;;;5034206;28;20202;-65
2021/09/01 05:30:54;;;;;;;14.80;11.20;;;15.20;99.90;;;;;;5033192;28;20168;-66
2021/09/01 05:33:20;;;;;;;17.60;12.13;;;15.30;99.90;;;;;;5034292;28;20270;-66
2021/09/01 05:35:49;;;;;;;15.30;12.60;;;15.20;99.90;;;;;;5033857;28;20218;-66
2021/09/01 05:38:19;;;;;;;16.77;11.73;;;15.30;99.90;;;;;;5034007;28;20261;-66
2021/09/01 05:40:49;;;;;;;15.67;11.80;;;15.20;99.90;;;;;;5033390;28;20254;-66
2021/09/01 05:43:17;;;;;;;15.93;12.70;;;15.20;99.90;;;;;;5034042;28;20586;-66
2021/09/01 05:45:45;;;;;;;21.13;13.20;;;15.30;99.90;;;;;;5033785;28;20618;-66
2021/09/01 05:48:10;;;;;;;14.33;12.57;;;15.30;99.90;;;;;;5033706;28;20287;-66
2021/09/01 05:50:36;;;;;;;14.90;12.63;;;15.40;99.90;;;;;;5033144;28;20602;-65
2021/09/01 05:53:02;;;;;;;20.13;12.50;;;15.40;99.90;;;;;;5033909;28;20229;-66
2021/09/01 05:55:32;;;;;;;17.67;12.57;;;15.40;99.90;;;;;;5033585;28;20176;-66
2021/09/01 05:58:02;;;;;;;17.07;13.00;;;15.40;99.90;;;;;;5033722;28;20668;-66
2021/09/01 06:00:54;;;;;;;13.90;11.50;;;15.40;99.90;;;;;;5033174;28;20670;-66
2021/09/01 06:03:32;;;;;;;18.43;13.70;;;15.40;99.90;;;;;;5032262;28;20171;-65
2021/09/01 06:06:01;;;;;;;14.17;12.50;;;15.50;99.90;;;;;;5032694;28;20187;-66
2021/09/01 06:08:33;;;;;;;14.43;12.10;;;15.60;99.90;;;;;;5033343;28;20207;-66
2021/09/01 06:11:01;;;;;;;18.23;13.23;;;15.60;99.90;;;;;;5017795;28;20225;-67
2021/09/01 06:13:27;;;;;;;19.73;13.30;;;15.70;99.90;;;;;;5013623;28;20723;-66
2021/09/01 06:15:55;;;;;;;16.93;13.13;;;15.70;99.90;;;;;;5025544;28;20200;-66
2021/09/01 06:18:20;;;;;;;20.00;14.20;;;15.70;99.90;;;;;;5033242;28;20196;-66
2021/09/01 06:20:46;;;;;;;16.77;13.37;;;15.80;99.90;;;;;;5021772;28;20230;-66
2021/09/01 06:23:12;;;;;;;20.17;15.00;;;15.80;99.90;;;;;;5013466;28;20187;-66
2021/09/01 06:25:38;;;;;;;18.37;14.97;;;15.90;99.90;;;;;;5020896;28;20262;-66
2021/09/01 06:28:08;;;;;;;20.63;14.83;;;16.00;99.90;;;;;;5032686;28;20203;-66
2021/09/01 06:30:35;;;;;;;18.77;14.77;;;16.10;99.90;;;;;;5017157;28;20517;-66
2021/09/01 06:33:01;;;;;;;15.97;14.00;;;16.10;99.90;;;;;;5012995;28;20176;-66
2021/09/01 06:35:26;;;;;;;16.40;13.17;;;16.30;99.90;;;;;;5026467;28;20172;-66
2021/09/01 06:37:52;;;;;;;17.30;12.80;;;16.40;99.90;;;;;;5030875;28;20289;-65
2021/09/01 06:40:19;;;;;;;15.77;12.83;;;16.40;99.90;;;;;;5032556;28;20253;-66
2021/09/01 06:42:45;;;;;;;13.17;11.93;;;16.40;99.90;;;;;;5025926;28;20176;-65
2021/09/01 06:45:11;;;;;;;16.73;12.43;;;16.40;99.90;;;;;;5026541;28;20544;-65
2021/09/01 06:47:57;;;;;;;16.13;12.67;;;16.40;99.90;;;;;;5032315;28;20249;-65
2021/09/01 06:50:26;;;;;;;16.73;11.13;;;16.40;99.90;;;;;;5032107;28;20191;-65
2021/09/01 06:52:52;;;;;;;16.47;12.03;;;16.40;99.90;;;;;;5025770;28;20240;-65
2021/09/01 06:55:18;;;;;;;15.67;12.07;;;16.30;99.90;;;;;;5017565;28;20653;-65
2021/09/01 06:57:44;;;;;;;17.90;11.17;;;16.30;99.90;;;;;;5028654;28;20302;-65
2021/09/01 07:00:13;;;;;;;16.97;11.93;;;16.40;99.90;;;;;;5032023;28;20182;-64
2021/09/01 07:02:39;;;;;;;13.33;10.80;;;16.50;99.90;;;;;;5016015;28;20238;-64
2021/09/01 07:05:05;;;;;;;16.40;12.13;;;16.60;99.90;;;;;;5012348;28;20196;-64
2021/09/01 07:07:31;;;;;;;16.13;11.20;;;16.60;99.90;;;;;;5023277;28;20290;-64
2021/09/01 07:09:57;;;;;;;15.47;10.97;;;16.70;99.90;;;;;;5017917;28;20267;-64
2021/09/01 07:12:23;;;;;;;17.17;10.60;;;16.80;99.90;;;;;;5032283;28;20218;-64
2021/09/01 07:14:49;;;;;;;16.73;12.03;;;16.90;99.90;;;;;;5027590;28;20561;-64
2021/09/01 07:17:15;;;;;;;11.70;9.83;;;17.10;99.90;;;;;;5012228;28;20188;-64
2021/09/01 07:19:40;;;;;;;15.13;10.77;;;17.10;99.90;;;;;;5014659;28;20206;-64
2021/09/01 07:22:06;;;;;;;13.03;10.80;;;17.20;99.90;;;;;;5031718;28;20175;-64
2021/09/01 07:24:31;;;;;;;14.57;10.83;;;17.30;99.90;;;;;;5030985;28;20176;-64
2021/09/01 07:26:57;;;;;;;14.33;11.47;;;17.30;99.90;;;;;;5014208;28;20341;-64
2021/09/01 07:29:23;;;;;;;14.33;11.93;;;17.40;99.90;;;;;;5035480;28;20181;-64
2021/09/01 07:31:48;;;;;;;14.73;11.67;;;17.40;99.90;;;;;;5031887;28;20183;-64
2021/09/01 07:34:14;;;;;;;15.43;11.20;;;17.50;99.90;;;;;;5031688;28;20178;-64
2021/09/01 07:36:40;;;;;;;18.30;13.53;;;17.60;99.90;;;;;;5030893;28;20286;-64
2021/09/01 07:39:05;;;;;;;16.13;12.03;;;17.70;99.90;;;;;;5031681;28;20520;-64
2021/09/01 07:41:31;;;;;;;16.43;12.73;;;17.70;99.90;;;;;;5030158;28;20262;-64
2021/09/01 07:43:56;;;;;;;17.20;12.67;;;17.70;99.90;;;;;;5031701;28;20171;-64
2021/09/01 07:46:22;;;;;;;14.30;12.10;;;17.60;99.90;;;;;;5031337;28;20187;-64
2021/09/01 07:48:48;;;;;;;15.13;12.37;;;17.50;99.90;;;;;;5031332;28;20207;-64
2021/09/01 07:51:13;;;;;;;17.70;12.30;;;17.60;99.90;;;;;;5031093;28;20219;-64
2021/09/01 07:53:39;;;;;;;15.57;12.83;;;17.60;99.90;;;;;;5031637;28;20179;-64
2021/09/01 07:56:04;;;;;;;19.43;14.83;;;17.70;99.90;;;;;;5031266;28;20557;-64
2021/09/01 07:58:30;;;;;;;17.90;11.43;;;17.60;99.90;;;;;;5031521;28;20191;-64
2021/09/01 08:00:55;;;;;;;19.53;13.87;;;17.80;99.90;;;;;;5030722;28;20262;-64
2021/09/01 08:03:21;;;;;;;13.23;11.77;;;18.00;99.90;;;;;;5031525;28;20270;-64
2021/09/01 08:05:47;;;;;;;15.43;11.70;;;18.10;99.90;;;;;;5031168;28;20187;-64
2021/09/01 08:08:12;;;;;;;16.27;13.47;;;18.10;99.90;;;;;;5030801;28;20207;-64
2021/09/01 08:10:38;;;;;;;20.57;12.60;;;17.90;99.90;;;;;;5030952;28;20644;-64
2021/09/01 08:13:03;;;;;;;16.07;12.97;;;17.90;99.90;;;;;;5031267;28;20229;-64
2021/09/01 08:15:29;;;;;;;16.50;11.97;;;18.10;99.90;;;;;;5031239;28;20183;-64
2021/09/01 08:17:55;;;;;;;17.77;12.20;;;18.20;99.90;;;;;;5031244;28;20214;-64
2021/09/01 08:20:20;;;;;;;14.90;10.90;;;18.40;99.90;;;;;;5030907;28;20180;-64
2021/09/01 08:22:46;;;;;;;12.07;10.33;;;18.50;99.90;;;;;;5031248;28;20213;-64
2021/09/01 08:25:12;;;;;;;12.97;11.40;;;18.40;99.90;;;;;;5031153;28;20269;-64
2021/09/01 08:27:38;;;;;;;14.37;10.80;;;18.40;99.90;;;;;;5030996;28;20199;-64
2021/09/01 08:30:05;;;;;;;12.53;9.77;;;18.50;99.90;;;;;;5030750;28;20236;-64
2021/09/01 08:32:31;;;;;;;17.17;10.87;;;18.40;99.90;;;;;;5031194;28;20528;-64
2021/09/01 08:34:56;;;;;;;15.57;10.57;;;18.50;99.90;;;;;;5030900;28;20186;-64
2021/09/01 08:37:22;;;;;;;17.53;10.70;;;18.40;99.90;;;;;;5031130;28;20226;-64
2021/09/01 08:39:47;;;;;;;11.07;9.97;;;18.60;99.90;;;;;;5029359;28;20234;-64
2021/09/01 08:42:16;;;;;;;13.43;10.13;;;18.50;99.90;;;;;;5031116;28;20183;-64
2021/09/01 08:44:41;;;;;;;15.63;10.90;;;18.20;99.90;;;;;;5031025;28;20183;-64
2021/09/01 08:47:07;;;;;;;12.60;9.07;;;17.90;99.90;;;;;;5030911;28;20261;-64
2021/09/01 08:49:33;;;;;;;17.50;12.00;;;17.60;99.90;;;;;;5030705;28;20180;-64
2021/09/01 08:52:00;;;;;;;14.60;13.20;;;17.50;99.90;;;;;;5031027;28;20258;-64
2021/09/01 08:54:25;;;;;;;13.57;11.07;;;17.50;99.90;;;;;;5034222;28;20258;-64
2021/09/01 08:56:51;;;;;;;12.53;10.40;;;17.40;99.90;;;;;;5034507;28;20695;-64
2021/09/01 08:59:17;;;;;;;18.73;11.90;;;17.50;99.90;;;;;;5034336;28;20175;-64
2021/09/01 09:01:55;;;;;;;15.77;10.90;;;17.60;99.90;;;;;;5034553;28;20629;-64
2021/09/01 09:04:29;;;;;;;15.90;14.30;;;17.70;99.90;;;;;;5034496;28;20175;-64
2021/09/01 09:07:00;;;;;;;12.50;10.23;;;17.80;99.90;;;;;;5034221;28;20230;-64
2021/09/01 09:09:27;;;;;;;12.23;10.27;;;18.10;99.90;;;;;;5034108;28;20187;-65
2021/09/01 09:11:54;;;;;;;13.67;11.53;;;18.20;99.90;;;;;;5034317;28;20266;-65
2021/09/01 09:14:26;;;;;;;16.07;10.57;;;18.30;99.90;;;;;;5034270;28;20171;-65
2021/09/01 09:17:05;;;;;;;14.17;10.60;;;18.20;99.90;;;;;;5034206;28;20648;-66
2021/09/01 09:19:52;;;;;;;14.30;11.03;;;18.20;99.90;;;;;;5034037;28;20213;-65
2021/09/01 09:22:30;;;;;;;13.40;10.77;;;18.10;99.90;;;;;;5034384;28;20259;-65
2021/09/01 09:25:25;;;;;;;14.60;11.17;;;18.20;99.90;;;;;;5033840;28;20277;-65
2021/09/01 09:28:01;;;;;;;13.17;9.97;;;18.40;99.90;;;;;;5034057;28;20573;-65
2021/09/01 09:30:33;;;;;;;15.17;10.87;;;18.50;99.90;;;;;;5033692;28;20815;-65
2021/09/01 09:33:03;;;;;;;13.07;9.90;;;18.60;99.90;;;;;;5033946;28;20609;-65
2021/09/01 09:35:58;;;;;;;18.87;11.33;;;18.40;99.90;;;;;;5033918;28;20191;-64
2021/09/01 09:38:29;;;;;;;15.90;10.17;;;18.40;99.90;;;;;;5033923;28;20211;-65
2021/09/01 09:40:55;;;;;;;16.97;10.93;;;18.40;99.90;;;;;;5033289;28;20188;-65
2021/09/01 09:43:24;;;;;;;14.87;11.40;;;18.50;99.90;;;;;;5033992;28;20187;-65
2021/09/01 09:46:07;;;;;;;15.33;10.43;;;18.50;99.90;;;;;;5033638;28;20184;-65
2021/09/01 09:48:34;;;;;;;14.63;11.13;;;18.50;99.90;;;;;;5033619;28;20219;-65
2021/09/01 09:51:03;;;;;;;20.07;13.17;;;18.60;99.90;;;;;;5033065;28;20571;-65
2021/09/01 09:53:35;;;;;;;13.43;12.03;;;18.70;99.90;;;;;;5033705;28;20306;-65
2021/09/01 09:56:16;;;;;;;17.53;12.07;;;18.70;99.90;;;;;;5033676;28;20626;-65
2021/09/01 09:58:44;;;;;;;13.20;11.77;;;18.70;99.90;;;;;;5033554;28;20249;-65
2021/09/01 10:01:11;;;;;;;15.23;11.23;;;18.70;99.90;;;;;;5033140;28;20632;-65
2021/09/01 10:03:38;;;;;;;17.27;11.30;;;18.40;99.90;;;;;;5033393;28;20249;-65
2021/09/01 10:06:07;;;;;;;14.00;10.77;;;18.20;99.90;;;;;;5032651;28;20175;-65
2021/09/01 10:08:34;;;;;;;17.47;11.03;;;18.20;99.90;;;;;;5033180;28;20696;-64
2021/09/01 10:11:01;;;;;;;13.60;11.47;;;18.20;99.90;;;;;;5033131;28;20514;-65
2021/09/01 10:13:31;;;;;;;21.07;11.53;;;18.20;99.90;;;;;;5033161;28;20637;-65
2021/09/01 10:16:20;;;;;;;13.00;11.10;;;18.30;99.90;;;;;;5013443;28;20176;-65
2021/09/01 10:19:02;;;;;;;16.40;11.60;;;18.40;99.90;;;;;;5005180;28;20274;-65
2021/09/01 10:21:30;;;;;;;15.23;11.07;;;18.50;99.90;;;;;;5033297;28;20632;-64
2021/09/01 10:23:56;;;;;;;14.07;11.10;;;18.60;99.90;;;;;;5032840;28;20175;-65
2021/09/01 10:26:28;;;;;;;17.57;11.60;;;18.70;99.90;;;;;;5033196;28;20182;-64
2021/09/01 10:28:56;;;;;;;15.70;11.17;;;18.80;99.90;;;;;;5032588;28;20215;-64
2021/09/01 10:31:24;;;;;;;12.43;10.50;;;18.70;99.90;;;;;;5031605;28;20202;-64
2021/09/01 10:33:52;;;;;;;15.30;11.10;;;18.70;99.90;;;;;;5033024;28;20258;-65
2021/09/01 10:36:23;;;;;;;13.57;10.87;;;18.60;99.90;;;;;;5032600;28;20186;-65
2021/09/01 10:39:16;;;;;;;14.20;9.67;;;18.60;99.90;;;;;;5033096;28;20301;-64
2021/09/01 10:41:43;;;;;;;12.40;10.37;;;18.50;99.90;;;;;;5013053;28;20176;-64
2021/09/01 10:44:41;;;;;;;12.83;10.17;;;18.50;99.90;;;;;;5014213;28;20184;-64
2021/09/01 10:47:07;;;;;;;16.07;10.37;;;18.30;99.90;;;;;;5032351;28;20215;-64
2021/09/01 10:49:54;;;;;;;18.83;11.70;;;18.30;99.90;;;;;;5032301;28;20176;-65
2021/09/01 10:52:21;;;;;;;17.13;10.63;;;18.20;99.90;;;;;;5032627;28;20183;-64
2021/09/01 10:54:49;;;;;;;15.97;11.20;;;18.10;99.90;;;;;;5032345;28;20183;-65
2021/09/01 10:57:30;;;;;;;13.63;10.60;;;18.20;99.90;;;;;;5032492;28;20202;-65
2021/09/01 10:59:59;;;;;;;14.93;11.60;;;18.30;99.90;;;;;;5032132;28;20190;-64
2021/09/01 11:02:25;;;;;;;16.37;10.83;;;18.40;99.90;;;;;;5032558;28;20184;-64
2021/09/01 11:04:57;;;;;;;12.37;9.83;;;18.50;99.90;;;;;;5032019;28;20210;-64
2021/09/01 11:07:28;;;;;;;18.77;11.40;;;18.40;99.90;;;;;;5032263;28;20569;-64
2021/09/01 11:10:00;;;;;;;16.47;12.07;;;18.40;99.90;;;;;;5032005;28;20187;-64
2021/09/01 11:12:27;;;;;;;16.37;12.33;;;18.60;99.90;;;;;;5032495;28;20645;-64
2021/09/01 11:14:54;;;;;;;19.73;13.60;;;18.60;99.90;;;;;;5031849;28;20179;-65
2021/09/01 11:17:27;;;;;;;15.70;12.93;;;18.90;99.90;;;;;;5031939;28;20261;-65
2021/09/01 11:19:58;;;;;;;12.80;10.90;;;19.00;99.90;;;;;;5031636;28;20262;-64
2021/09/01 11:22:36;;;;;;;16.63;11.53;;;19.10;99.90;;;;;;5032043;28;20195;-65
2021/09/01 11:25:14;;;;;;;16.33;11.70;;;19.20;99.90;;;;;;5012216;28;20182;-65
2021/09/01 11:27:57;;;;;;;16.27;11.50;;;19.20;99.90;;;;;;5012691;28;20211;-65
2021/09/01 11:30:30;;;;;;;11.60;10.40;;;19.20;99.90;;;;;;5031642;28;20167;-65
2021/09/01 11:32:56;;;;;;;10.77;9.67;;;19.40;99.90;;;;;;5031424;28;20176;-65
2021/09/01 11:35:25;;;;;;;12.27;9.37;;;19.50;99.90;;;;;;5032004;28;20175;-65
2021/09/01 11:38:03;;;;;;;14.33;9.77;;;19.20;99.90;;;;;;5031704;28;20618;-64
2021/09/01 11:40:37;;;;;;;13.57;9.90;;;19.20;99.90;;;;;;5031576;28;20581;-64
2021/09/01 11:43:20;;;;;;;14.10;11.23;;;19.10;99.90;;;;;;5030051;28;20175;-65
2021/09/01 11:45:48;;;;;;;11.87;9.57;;;19.10;99.90;;;;;;5031878;28;20176;-64
2021/09/01 11:48:14;;;;;;;18.23;9.73;;;19.10;99.90;;;;;;5031332;28;20203;-65
2021/09/01 11:50:43;;;;;;;16.40;9.30;;;19.10;99.90;;;;;;5031385;28;20270;-65
2021/09/01 11:53:13;;;;;;;12.83;9.57;;;19.10;99.90;;;;;;5031277;28;20544;-65
2021/09/01 11:55:40;;;;;;;20.67;9.07;;;19.00;99.90;;;;;;5031740;28;20266;-65
2021/09/01 11:58:16;;;;;;;11.00;9.67;;;19.10;99.90;;;;;;5031280;28;20614;-64
2021/09/01 12:00:46;;;;;;;14.50;10.20;;;19.00;99.90;;;;;;5031283;28;20179;-65
2021/09/01 12:03:13;;;;;;;12.17;9.63;;;18.90;99.90;;;;;;5031212;28;20552;-65
2021/09/01 12:05:43;;;;;;;11.23;10.00;;;19.00;99.90;;;;;;5031533;28;20519;-64
2021/09/01 12:08:19;;;;;;;13.53;10.67;;;19.00;99.90;;;;;;5031287;28;20290;-64
2021/09/01 12:10:47;;;;;;;13.10;9.97;;;18.90;99.90;;;;;;5011644;28;20186;-64
2021/09/01 12:13:13;;;;;;;13.13;9.97;;;18.80;99.90;;;;;;5012151;28;20172;-65
2021/09/01 12:15:53;;;;;;;12.30;10.57;;;18.70;99.90;;;;;;5011733;28;20195;-64
2021/09/01 12:18:19;;;;;;;12.33;10.97;;;18.60;99.90;;;;;;5012122;28;20195;-64
2021/09/01 12:20:57;;;;;;;20.87;14.90;;;18.60;99.90;;;;;;5031117;28;20192;-64
2021/09/01 12:23:23;;;;;;;27.50;17.20;;;18.60;99.90;;;;;;5031364;28;20175;-64
2021/09/01 12:25:49;;;;;;;22.20;15.60;;;18.60;99.90;;;;;;5011564;28;20177;-64
2021/09/01 12:28:17;;;;;;;26.87;16.80;;;18.60;99.90;;;;;;5024586;28;20203;-64
2021/09/01 12:30:48;;;;;;;26.90;16.73;;;18.60;99.90;;;;;;5034976;28;20254;-64
2021/09/01 12:33:16;;;;;;;28.67;17.53;;;18.70;99.90;;;;;;5034849;28;20179;-64